Time;durP1;ratioP1;P1;durP2;ratioP2;P2;SDS_P1;SDS_P2;PMS_P1;PMS_P2;Temp;Humidity;BMP_temperature;BMP_pressure;BME280_temperature;BME280_humidity;BME280_pressure;Samples;Min_cycle;Max_cycle;Signal;HPM_P1;HPM_P2
2021/03/13 00:00:40;;;;;;;15.75;6.17;;;;;;;-4.15;68.29;100161.36;1685899;84;21110;-77
2021/03/13 00:03:08;;;;;;;12.45;5.97;;;;;;;-4.15;67.89;100162.70;1690508;82;21154;-73
2021/03/13 00:05:38;;;;;;;19.15;6.62;;;;;;;-4.14;68.58;100169.20;1686439;85;21574;-74
2021/03/13 00:08:07;;;;;;;13.40;6.63;;;;;;;-4.14;68.43;100167.03;1686272;82;21163;-73
2021/03/13 00:10:36;;;;;;;19.25;6.87;;;;;;;-4.14;68.56;100160.34;1689662;84;21119;-80
2021/03/13 00:13:05;;;;;;;13.53;6.63;;;;;;;-4.15;68.50;100168.05;1703873;82;21137;-81
2021/03/13 00:15:34;;;;;;;20.03;6.60;;;;;;;-4.19;68.76;100164.83;1700387;84;21121;-80
2021/03/13 00:18:02;;;;;;;17.37;6.70;;;;;;;-4.20;69.48;100159.13;1716094;81;21142;-81
2021/03/13 00:20:31;;;;;;;;;;;;;;;-4.19;69.77;100150.62;1698773;84;21105;-73
2021/03/13 00:22:59;;;;;;;13.90;6.70;;;;;;;-4.19;70.06;100147.95;1694837;82;20523;-82
2021/03/13 00:25:29;;;;;;;13.80;6.33;;;;;;;-4.20;70.56;100143.62;1693999;85;21120;-81
2021/03/13 00:27:56;;;;;;;14.43;6.70;;;;;;;-4.19;70.79;100139.94;1707341;82;21223;-73
2021/03/13 00:30:33;;;;;;;14.50;6.62;;;;;;;-4.20;70.88;100136.94;1695723;83;21217;-72
2021/03/13 00:33:05;;;;;;;14.97;7.00;;;;;;;-4.21;71.49;100139.27;1712822;82;21526;-76
2021/03/13 00:35:34;;;;;;;18.30;7.17;;;;;;;-4.24;71.92;100127.55;1709440;82;21248;-76
2021/03/13 00:38:02;;;;;;;;;;;;;;;-4.25;72.35;100130.71;1702006;83;21192;-76
2021/03/13 00:40:32;;;;;;;16.70;6.70;;;;;;;-4.28;72.42;100129.72;1682018;83;20211;-77
2021/03/13 00:43:00;;;;;;;15.67;7.30;;;;;;;-4.29;72.68;100128.52;1711671;84;21212;-78
2021/03/13 00:45:28;;;;;;;16.12;7.72;;;;;;;-4.30;72.96;100127.67;1701224;82;21149;-78
2021/03/13 00:47:57;;;;;;;15.32;7.55;;;;;;;-4.31;73.10;100125.17;1715123;84;21161;-74
2021/03/13 00:50:28;;;;;;;15.27;7.20;;;;;;;-4.31;73.75;100122.50;1708826;82;21263;-77
2021/03/13 00:52:56;;;;;;;13.37;7.07;;;;;;;-4.33;73.92;100120.00;1699842;83;21557;-74
2021/03/13 00:55:24;;;;;;;;;;;;;;;-4.35;73.90;100111.80;1702721;82;21215;-78
2021/03/13 00:57:54;;;;;;;17.73;7.20;;;;;;;-4.37;74.33;100107.93;1699774;83;20476;-77
2021/03/13 01:00:25;;;;;;;15.93;7.17;;;;;;;-4.40;74.57;100102.08;1701406;82;21114;-77
2021/03/13 01:02:53;;;;;;;18.93;7.70;;;;;;;-4.43;74.50;100102.39;1712465;84;21208;-73
2021/03/13 01:05:23;;;;;;;18.53;7.50;;;;;;;-4.43;74.76;100091.70;1691246;82;21145;-74
2021/03/13 01:07:53;;;;;;;15.60;6.50;;;;;;;-4.43;74.92;100105.06;1707624;84;21133;-73
2021/03/13 01:10:30;;;;;;;18.13;7.50;;;;;;;-4.42;75.08;100104.05;1712019;82;21169;-72
2021/03/13 01:12:58;;;;;;;15.00;7.33;;;;;;;-4.41;75.02;100087.87;1671946;85;21135;-71
2021/03/13 01:15:27;;;;;;;16.57;7.70;;;;;;;-4.41;75.22;100088.37;1710267;82;21109;-70
2021/03/13 01:17:55;;;;;;;17.00;7.47;;;;;;;-4.43;75.32;100091.70;1718896;83;21088;-74
2021/03/13 01:20:25;;;;;;;16.33;7.03;;;;;;;-4.40;75.12;100090.88;1725062;83;21140;-73
2021/03/13 01:22:53;;;;;;;16.50;7.70;;;;;;;-4.39;75.27;100093.89;1681071;83;21113;-73
2021/03/13 01:25:21;;;;;;;16.60;7.42;;;;;;;-4.38;75.41;100089.40;1696693;84;21135;-83
2021/03/13 01:27:49;;;;;;;18.25;8.48;;;;;;;-4.39;75.46;100094.39;1716979;81;21197;-73
2021/03/13 01:30:20;;;;;;;19.35;8.08;;;;;;;-4.39;75.66;100094.39;1719337;83;21123;-73
2021/03/13 01:32:51;;;;;;;19.20;8.17;;;;;;;-4.37;75.68;100090.56;1714345;81;21571;-73
2021/03/13 01:35:20;;;;;;;17.00;7.90;;;;;;;-4.34;75.60;100081.39;1711051;84;21147;-78
2021/03/13 01:37:48;;;;;;;17.37;7.80;;;;;;;-4.32;75.81;100082.07;1702272;81;21104;-78
2021/03/13 01:40:18;;;;;;;17.87;7.97;;;;;;;-4.33;75.77;100093.28;1681143;85;21165;-78
2021/03/13 01:42:47;;;;;;;21.75;7.83;;;;;;;-4.32;75.87;100095.42;1695140;82;21153;-74
2021/03/13 01:45:21;;;;;;;19.17;7.80;;;;;;;-4.32;76.15;100095.42;1691086;84;21247;-78
2021/03/13 01:47:50;;;;;;;19.17;8.73;;;;;;;-4.33;76.32;100099.11;1696740;81;21358;-77
2021/03/13 01:50:19;;;;;;;17.50;7.40;;;;;;;-4.31;76.71;100097.11;1680980;85;21193;-78
2021/03/13 01:52:49;;;;;;;15.80;7.90;;;;;;;-4.34;76.84;100099.61;1690896;82;21164;-77
2021/03/13 01:55:19;;;;;;;17.47;8.10;;;;;;;-4.34;77.21;100093.42;1711663;83;21172;-73
2021/03/13 01:57:49;;;;;;;19.03;8.67;;;;;;;-4.35;77.13;100093.09;1705825;83;21130;-78
2021/03/13 02:00:21;;;;;;;15.70;7.43;;;;;;;-4.37;77.26;100095.06;1682941;83;21155;-77
2021/03/13 02:02:51;;;;;;;22.43;8.17;;;;;;;-4.36;77.04;100094.92;1719057;83;21132;-79
2021/03/13 02:05:26;;;;;;;17.70;8.47;;;;;;;-4.34;77.01;100099.61;1685733;83;21326;-73
2021/03/13 02:08:09;;;;;;;19.30;9.17;;;;;;;-4.31;77.05;100087.77;1720525;83;21157;-78
2021/03/13 02:11:08;;;;;;;18.97;9.00;;;;;;;-4.31;76.81;100089.10;1703312;83;21160;-78
2021/03/13 02:14:08;;;;;;;23.00;8.90;;;;;;;-4.25;76.83;100088.48;1692989;83;21572;-78
2021/03/13 02:17:05;;;;;;;20.77;9.27;;;;;;;-4.19;76.88;100094.52;1580879;85;21366;-73
2021/03/13 02:20:01;;;;;;;20.92;8.80;;;;;;;-4.16;76.73;100088.86;1684452;83;21201;-78
2021/03/13 02:22:34;;;;;;;21.67;9.67;;;;;;;-4.17;76.82;100095.19;1689083;84;21145;-78
2021/03/13 02:25:45;;;;;;;22.93;9.73;;;;;;;-4.17;76.92;100092.02;1704153;82;21250;-70
2021/03/13 02:28:37;;;;;;;18.27;8.60;;;;;;;-4.16;77.10;100090.19;1711311;84;21134;-79
2021/03/13 02:31:05;;;;;;;19.13;9.17;;;;;;;-4.15;76.99;100084.67;1655403;85;21130;-81
2021/03/13 02:33:36;;;;;;;17.45;9.45;;;;;;;-4.15;77.04;100086.53;1711385;84;21765;-74
2021/03/13 02:36:11;;;;;;;20.43;9.07;;;;;;;-4.12;77.04;100086.19;1705687;83;21216;-75
2021/03/13 02:38:57;;;;;;;21.00;9.53;;;;;;;-4.10;77.28;100080.22;1713316;83;21673;-71
2021/03/13 02:41:32;;;;;;;20.90;8.97;;;;;;;-4.08;77.24;100084.89;1714036;83;21129;-75
2021/03/13 02:44:04;;;;;;;19.97;9.70;;;;;;;-4.06;77.36;100075.72;1713002;84;21672;-80
2021/03/13 02:46:43;;;;;;;18.97;9.90;;;;;;;-4.05;77.19;100077.91;1709662;83;21144;-80
2021/03/13 02:49:12;;;;;;;18.57;9.10;;;;;;;-4.00;77.31;100077.73;1690218;84;21149;-79
2021/03/13 02:51:41;;;;;;;17.77;9.50;;;;;;;-3.96;77.41;100080.45;1698896;83;21272;-76
2021/03/13 02:54:09;;;;;;;19.32;9.00;;;;;;;-3.94;77.44;100078.45;1715329;84;21208;-76
2021/03/13 02:56:41;;;;;;;18.23;9.17;;;;;;;-3.96;77.53;100076.44;1710369;83;21106;-77
2021/03/13 02:59:11;;;;;;;18.63;9.60;;;;;;;-3.92;77.55;100075.59;1701309;84;21183;-78
2021/03/13 03:01:39;;;;;;;21.00;10.20;;;;;;;-3.93;77.65;100075.28;1702346;83;21251;-79
2021/03/13 03:04:07;;;;;;;21.77;9.08;;;;;;;-3.92;77.65;100070.25;1697084;84;21184;-79
2021/03/13 03:06:41;;;;;;;19.80;10.30;;;;;;;-3.90;77.86;100072.29;1688456;83;21129;-74
2021/03/13 03:09:10;;;;;;;18.67;8.90;;;;;;;-3.89;77.97;100076.62;1728337;83;21199;-87
2021/03/13 03:11:42;;;;;;;17.67;9.10;;;;;;;-3.87;78.07;100080.00;1678636;85;21266;-73
2021/03/13 03:14:12;;;;;;;18.53;9.73;;;;;;;-3.88;78.25;100077.81;1706741;82;21200;-83
2021/03/13 03:16:43;;;;;;;19.70;10.30;;;;;;;-3.87;78.05;100081.33;1720261;83;21125;-74
2021/03/13 03:19:13;;;;;;;19.37;9.10;;;;;;;-3.85;78.14;100082.00;1695671;82;21160;-78
2021/03/13 03:21:43;;;;;;;22.70;10.00;;;;;;;-3.86;78.21;100082.98;1669789;84;21796;-75
2021/03/13 03:24:11;;;;;;;23.22;11.33;;;;;;;-3.86;78.20;100084.33;1717885;81;21184;-74
2021/03/13 03:26:40;;;;;;;21.97;10.77;;;;;;;-3.86;78.25;100078.48;1726315;83;21199;-75
2021/03/13 03:29:09;;;;;;;21.82;10.13;;;;;;;-3.86;78.36;100077.64;1725151;81;21196;-72
2021/03/13 03:31:37;;;;;;;24.47;11.97;;;;;;;-3.88;78.23;100080.98;1700446;83;21141;-75
2021/03/13 03:34:05;;;;;;;21.35;10.82;;;;;;;-3.89;78.31;100080.63;1719136;81;21138;-78
2021/03/13 03:36:33;;;;;;;22.73;11.40;;;;;;;-3.91;78.58;100077.28;1711212;84;21159;-71
2021/03/13 03:39:02;;;;;;;20.77;10.80;;;;;;;-3.92;78.57;100080.95;1710071;81;21135;-76
2021/03/13 03:41:33;;;;;;;24.77;11.73;;;;;;;-3.90;78.56;100074.97;1710503;84;21127;-81
2021/03/13 03:44:07;;;;;;;25.20;11.03;;;;;;;-3.89;78.41;100075.28;1711721;81;21151;-74
2021/03/13 03:46:36;;;;;;;23.43;10.90;;;;;;;-3.89;78.41;100079.30;1721661;83;21244;-81
2021/03/13 03:49:06;;;;;;;21.13;11.00;;;;;;;-3.89;78.46;100080.63;1719231;81;21177;-75
2021/03/13 03:51:36;;;;;;;21.83;11.53;;;;;;;-3.90;78.42;100085.66;1710637;84;21578;-78
2021/03/13 03:54:09;;;;;;;21.63;10.97;;;;;;;-3.90;78.44;100085.66;1709667;84;21143;-82
2021/03/13 03:56:41;;;;;;;21.00;10.90;;;;;;;-3.91;78.58;100092.83;1720786;81;21073;-76
2021/03/13 03:59:10;;;;;;;20.37;11.27;;;;;;;-3.90;78.65;100087.80;1721439;83;21092;-81
2021/03/13 04:01:38;;;;;;;23.40;12.43;;;;;;;-3.88;78.70;100087.66;1720724;81;21478;-80
2021/03/13 04:04:07;;;;;;;22.58;12.65;;;;;;;-3.88;78.78;100085.84;1722224;83;21516;-79
2021/03/13 04:06:35;;;;;;;24.93;12.40;;;;;;;-3.90;78.79;100082.46;1634671;83;21046;-73
2021/03/13 04:09:04;;;;;;;23.90;11.50;;;;;;;-3.88;78.76;100094.34;1690592;83;21061;-72
2021/03/13 04:11:32;;;;;;;26.70;12.40;;;;;;;-3.89;78.77;100087.31;1724863;81;21045;-71
2021/03/13 04:14:00;;;;;;;22.10;12.30;;;;;;;-3.89;78.52;100088.16;1726974;83;21526;-71
2021/03/13 04:16:29;;;;;;;22.60;11.65;;;;;;;-3.89;78.42;100088.65;1686571;83;21000;-74
2021/03/13 04:18:58;;;;;;;23.13;12.07;;;;;;;-3.89;78.45;100081.47;1700095;81;21360;-71
2021/03/13 04:21:27;;;;;;;21.63;11.80;;;;;;;-3.86;78.48;100088.34;1719361;81;21022;-70
2021/03/13 04:23:55;;;;;;;23.00;11.40;;;;;;;-3.84;78.37;100086.33;1724968;82;21538;-70
2021/03/13 04:26:23;;;;;;;21.87;12.50;;;;;;;-3.83;78.43;100085.84;1722318;81;21186;-74
2021/03/13 04:28:51;;;;;;;22.67;12.33;;;;;;;-3.82;78.48;100088.37;1696743;83;21067;-75
2021/03/13 04:31:28;;;;;;;24.35;12.07;;;;;;;-3.80;78.49;100082.36;1706981;83;21021;-77
2021/03/13 04:33:57;;;;;;;27.87;12.47;;;;;;;-3.78;78.62;100085.70;1701002;81;21094;-71
2021/03/13 04:36:28;;;;;;;22.63;12.07;;;;;;;-3.77;78.78;100078.03;1711122;82;21463;-70
2021/03/13 04:38:58;;;;;;;25.33;13.57;;;;;;;-3.73;78.74;100089.22;1697517;82;21109;-69
2021/03/13 04:41:26;;;;;;;24.60;13.20;;;;;;;-3.69;78.63;100090.59;1712804;83;21420;-71
2021/03/13 04:43:54;;;;;;;;;;;;;;;-3.65;78.65;100083.41;1697974;81;21049;-71
2021/03/13 04:46:22;;;;;;;24.57;12.80;;;;;;;-3.65;78.48;100086.09;1686336;84;20165;-71
2021/03/13 04:48:50;;;;;;;27.55;13.55;;;;;;;-3.66;78.46;100087.08;1696414;82;21113;-70
2021/03/13 04:51:18;;;;;;;23.10;12.98;;;;;;;-3.67;78.57;100090.77;1706782;82;21108;-71
2021/03/13 04:53:46;;;;;;;22.52;12.68;;;;;;;-3.68;78.69;100085.07;1700375;82;21077;-78
2021/03/13 04:56:15;;;;;;;22.70;12.28;;;;;;;-3.68;78.65;100082.39;1713941;84;21006;-78
2021/03/13 04:58:42;;;;;;;23.87;12.33;;;;;;;-3.69;78.69;100090.59;1685886;82;21066;-76
2021/03/13 05:01:12;;;;;;;25.57;11.88;;;;;;;-3.71;78.66;100085.88;1686460;84;21039;-72
2021/03/13 05:03:42;;;;;;;24.23;11.93;;;;;;;-3.73;78.65;100091.41;1686237;82;21260;-76
2021/03/13 05:06:11;;;;;;;;;;;;;;;-3.72;78.65;100085.56;1689253;84;21065;-78
2021/03/13 05:08:40;;;;;;;23.80;11.63;;;;;;;-3.73;78.62;100076.70;1712659;82;20255;-76
2021/03/13 05:11:09;;;;;;;21.07;11.67;;;;;;;-3.73;78.58;100074.52;1723451;83;21050;-76
2021/03/13 05:13:38;;;;;;;21.40;11.20;;;;;;;-3.72;78.66;100084.23;1709640;83;21545;-76
2021/03/13 05:16:06;;;;;;;21.53;11.73;;;;;;;-3.71;78.74;100080.04;1691439;82;21049;-75
2021/03/13 05:18:34;;;;;;;;;;;;;;;-3.69;78.76;100090.06;1671338;84;21107;-76
2021/03/13 05:21:03;;;;;;;23.27;11.50;;;;;;;-3.65;78.93;100084.75;1681040;83;20183;-80
2021/03/13 05:23:31;;;;;;;22.77;11.50;;;;;;;-3.61;78.73;100086.09;1640446;86;21210;-82
2021/03/13 05:25:59;;;;;;;23.80;11.85;;;;;;;-3.59;78.91;100083.27;1706167;81;21071;-78
2021/03/13 05:28:27;;;;;;;27.32;11.43;;;;;;;-3.55;78.90;100085.95;1696174;84;21092;-74
2021/03/13 05:30:55;;;;;;;25.27;12.03;;;;;;;-3.51;78.80;100086.79;1693128;82;21187;-73
2021/03/13 05:33:23;;;;;;;23.50;12.47;;;;;;;-3.50;78.79;100089.81;1696557;84;21127;-75
2021/03/13 05:35:51;;;;;;;23.22;12.18;;;;;;;-3.49;78.72;100086.12;1706053;81;21077;-76
2021/03/13 05:38:18;;;;;;;25.25;12.03;;;;;;;-3.46;78.78;100082.28;1692474;85;21240;-78
2021/03/13 05:40:46;;;;;;;24.27;13.28;;;;;;;-3.46;78.69;100084.47;1689655;83;21182;-75
2021/03/13 05:43:14;;;;;;;22.80;12.23;;;;;;;-3.43;78.66;100085.48;1689976;85;21272;-77
2021/03/13 05:45:43;;;;;;;22.40;11.83;;;;;;;-3.41;78.56;100088.83;1689746;83;21073;-80
2021/03/13 05:48:12;;;;;;;21.67;12.17;;;;;;;-3.39;78.38;100090.83;1691538;85;21201;-76
2021/03/13 05:50:40;;;;;;;21.52;11.35;;;;;;;-3.36;78.22;100097.20;1691470;85;21094;-78
2021/03/13 05:53:10;;;;;;;21.90;12.20;;;;;;;-3.36;78.22;100097.20;1691347;82;21117;-74
2021/03/13 05:55:39;;;;;;;25.23;11.43;;;;;;;-3.35;78.00;100100.22;1686570;84;21097;-74
2021/03/13 05:58:07;;;;;;;25.07;12.33;;;;;;;-3.35;77.96;100104.23;1690125;83;21237;-76
2021/03/13 06:00:39;;;;;;;22.30;11.53;;;;;;;-3.35;77.99;100097.55;1695183;84;21102;-78
2021/03/13 06:03:08;;;;;;;21.07;11.33;;;;;;;-3.34;77.89;100101.87;1692404;83;21650;-79
2021/03/13 06:05:36;;;;;;;26.83;12.00;;;;;;;-3.35;78.06;100101.56;1703352;84;21061;-82
2021/03/13 06:08:04;;;;;;;24.43;12.73;;;;;;;-3.38;77.91;100105.05;1666571;84;21149;-80
2021/03/13 06:10:32;;;;;;;20.08;12.10;;;;;;;-3.41;77.94;100106.22;1697292;84;21089;-77
2021/03/13 06:13:00;;;;;;;22.90;13.10;;;;;;;-3.43;78.12;100110.90;1693043;83;21137;-75
2021/03/13 06:15:29;;;;;;;;;;;;;;;-3.44;78.44;100114.56;1704838;83;21057;-75
2021/03/13 06:18:02;;;;;;;23.02;11.93;;;;;;;-3.44;78.23;100106.53;1720377;83;20182;-76
2021/03/13 06:20:37;;;;;;;22.43;11.77;;;;;;;-3.44;78.41;100115.90;1707604;84;21180;-77
2021/03/13 06:23:13;;;;;;;23.80;12.23;;;;;;;-3.45;78.35;100119.59;1701036;83;21130;-79
2021/03/13 06:25:42;;;;;;;22.70;12.10;;;;;;;-3.44;78.44;100120.44;1686811;84;21095;-74
2021/03/13 06:28:17;;;;;;;23.30;12.07;;;;;;;-3.45;78.60;100119.59;1694260;83;21221;-74
2021/03/13 06:30:50;;;;;;;21.73;12.13;;;;;;;-3.48;78.52;100122.59;1718772;81;21076;-76
2021/03/13 06:33:30;;;;;;;22.70;12.40;;;;;;;-3.50;78.57;100129.95;1715652;81;21170;-76
2021/03/13 06:36:01;;;;;;;25.87;12.27;;;;;;;-3.50;78.87;100123.25;1705572;84;21572;-77
2021/03/13 06:38:35;;;;;;;24.53;12.33;;;;;;;-3.51;78.97;100124.24;1708785;82;21120;-73
2021/03/13 06:41:17;;;;;;;24.73;12.33;;;;;;;-3.49;79.03;100131.60;1690865;84;21096;-73
2021/03/13 06:43:48;;;;;;;22.43;12.33;;;;;;;-3.50;79.04;100128.61;1691636;82;21080;-76
2021/03/13 06:46:21;;;;;;;23.87;12.23;;;;;;;-3.50;79.06;100124.59;1696635;82;21544;-75
2021/03/13 06:48:54;;;;;;;23.77;12.20;;;;;;;-3.52;78.99;100125.75;1691269;85;21089;-75
2021/03/13 06:51:31;;;;;;;25.80;12.33;;;;;;;-3.51;79.24;100134.94;1727674;82;21100;-76
2021/03/13 06:54:13;;;;;;;23.60;11.80;;;;;;;-3.46;79.37;100123.75;1679010;83;21089;-78
2021/03/13 06:56:54;;;;;;;22.03;12.07;;;;;;;-3.41;79.20;100120.09;1682148;82;21743;-73
2021/03/13 06:59:30;;;;;;;23.10;12.17;;;;;;;-3.41;79.17;100122.27;1696133;82;21087;-75
2021/03/13 07:02:01;;;;;;;22.43;12.43;;;;;;;-3.39;79.26;100124.28;1703593;82;21133;-74
2021/03/13 07:04:36;;;;;;;22.23;12.23;;;;;;;-3.36;79.13;100127.12;1702080;83;21053;-74
2021/03/13 07:07:05;;;;;;;25.10;12.10;;;;;;;-3.36;79.25;100125.30;1699436;82;21124;-79
2021/03/13 07:09:51;;;;;;;19.73;11.67;;;;;;;-3.36;79.16;100128.47;1698248;84;21133;-80
2021/03/13 07:12:42;;;;;;;20.07;11.13;;;;;;;-3.37;79.06;100131.66;1696144;82;21167;-81
2021/03/13 07:15:18;;;;;;;22.83;11.80;;;;;;;-3.35;79.06;100132.83;1688432;83;21097;-74
2021/03/13 07:17:51;;;;;;;24.97;12.70;;;;;;;-3.34;78.97;100117.94;1720678;81;21196;-73
2021/03/13 07:20:24;;;;;;;22.53;12.30;;;;;;;-3.32;78.87;100130.68;1678854;85;21088;-79
2021/03/13 07:22:56;;;;;;;23.23;12.60;;;;;;;-3.30;78.98;100119.30;1656016;84;21158;-81
2021/03/13 07:25:26;;;;;;;25.33;12.63;;;;;;;-3.27;78.90;100125.67;1691671;82;21092;-77
2021/03/13 07:27:59;;;;;;;26.37;12.60;;;;;;;-3.24;78.92;100124.51;1670277;83;21097;-80
2021/03/13 07:30:29;;;;;;;22.03;11.03;;;;;;;-3.22;78.81;100123.34;1707723;82;21109;-78
2021/03/13 07:33:05;;;;;;;29.83;12.90;;;;;;;-3.21;78.83;100123.66;1695058;82;21071;-76
2021/03/13 07:35:41;;;;;;;24.82;12.35;;;;;;;-3.21;78.86;100128.17;1706536;81;21097;-81
2021/03/13 07:38:11;;;;;;;23.67;11.90;;;;;;;-3.19;79.03;100116.83;1711437;83;21615;-81
2021/03/13 07:40:46;;;;;;;;;;;;;;;-3.17;79.08;100113.97;1710773;83;21104;-78
2021/03/13 07:43:16;;;;;;;22.03;11.67;;;;;;;-3.16;78.94;100123.16;1670142;83;20224;-79
2021/03/13 07:45:48;;;;;;;23.63;12.10;;;;;;;-3.16;78.91;100123.69;1705669;84;21085;-80
2021/03/13 07:48:16;;;;;;;22.57;12.27;;;;;;;-3.16;78.99;100131.72;1692879;83;21111;-78
2021/03/13 07:50:48;;;;;;;35.60;13.87;;;;;;;-3.15;78.99;100142.75;1699903;82;21056;-82
2021/03/13 07:53:17;;;;;;;45.00;17.83;;;;;;;-3.17;79.11;100138.91;1702957;81;21110;-73
2021/03/13 07:55:51;;;;;;;23.63;12.83;;;;;;;-3.21;79.17;100143.73;1723812;81;21735;-80
2021/03/13 07:58:21;;;;;;;24.47;12.90;;;;;;;-3.23;79.40;100137.72;1701001;83;21203;-83
2021/03/13 08:00:49;;;;;;;24.95;13.90;;;;;;;-3.23;79.55;100148.42;1696726;83;21520;-81
2021/03/13 08:03:37;;;;;;;27.82;14.65;;;;;;;-3.22;79.52;100151.45;1700098;83;21239;-80
2021/03/13 08:06:08;;;;;;;29.10;15.47;;;;;;;-3.22;79.66;100150.11;1705611;83;21127;-81
2021/03/13 08:08:47;;;;;;;30.27;15.03;;;;;;;-3.17;79.80;100154.97;1702136;82;21627;-79
2021/03/13 08:11:17;;;;;;;29.47;15.03;;;;;;;-3.15;79.76;100154.30;1712080;82;21134;-82
2021/03/13 08:13:59;;;;;;;32.13;15.93;;;;;;;-3.12;79.85;100157.14;1673600;82;21101;-79
2021/03/13 08:16:33;;;;;;;34.53;15.73;;;;;;;-3.10;79.88;100158.66;1707891;82;21164;-78
2021/03/13 08:19:03;;;;;;;28.50;15.00;;;;;;;-3.09;79.75;100155.48;1696328;82;21347;-82
2021/03/13 08:21:39;;;;;;;28.37;14.87;;;;;;;-3.07;79.99;100154.81;1701345;83;21077;-81
2021/03/13 08:24:09;;;;;;;;;;;;;;;-3.04;80.02;100157.17;1696700;82;21128;-77
2021/03/13 08:26:58;;;;;;;27.20;12.63;;;;;;;-3.00;79.93;100146.45;1694643;82;20589;-75
2021/03/13 08:29:52;;;;;;;24.60;13.00;;;;;;;-2.99;80.03;100142.80;1701435;82;21050;-76
2021/03/13 08:33:02;;;;;;;22.75;13.10;;;;;;;-2.97;80.08;100138.11;1706903;83;21092;-77
2021/03/13 08:35:48;;;;;;;26.87;13.70;;;;;;;-2.95;79.98;100148.98;1640807;85;21633;-73
2021/03/13 08:38:20;;;;;;;31.80;14.80;;;;;;;-2.94;80.18;100141.80;1695415;82;21572;-72
2021/03/13 08:40:53;;;;;;;26.63;14.10;;;;;;;-2.95;80.31;100140.11;1695324;82;21065;-77
2021/03/13 08:43:37;;;;;;;23.70;13.23;;;;;;;-2.92;80.28;100140.62;1699861;83;21957;-81
2021/03/13 08:46:07;;;;;;;28.83;13.53;;;;;;;-2.88;80.13;100144.64;1717579;81;21071;-78
2021/03/13 08:48:56;;;;;;;29.17;14.17;;;;;;;-2.86;80.13;100139.14;1689902;83;21135;-73
2021/03/13 08:51:25;;;;;;;25.03;13.17;;;;;;;-2.84;80.22;100141.14;1654282;84;21170;-77
2021/03/13 08:53:53;;;;;;;34.63;14.13;;;;;;;-2.82;80.21;100137.79;1711501;82;21067;-78
2021/03/13 08:56:41;;;;;;;26.52;15.10;;;;;;;-2.81;80.11;100132.78;1700876;82;21101;-81
2021/03/13 08:59:18;;;;;;;28.13;14.90;;;;;;;-2.79;80.08;100137.46;1699472;83;21105;-79
2021/03/13 09:02:17;;;;;;;30.87;14.20;;;;;;;-2.74;79.99;100133.78;1690646;82;21789;-77
2021/03/13 09:04:50;;;;;;;27.03;13.87;;;;;;;-2.72;79.94;100121.05;1725912;81;21583;-74
2021/03/13 09:07:19;;;;;;;29.90;14.70;;;;;;;-2.70;79.86;100131.09;1692644;83;21181;-78
2021/03/13 09:09:51;;;;;;;28.10;14.53;;;;;;;-2.67;79.89;100144.16;1694068;83;21025;-75
2021/03/13 09:12:21;;;;;;;33.63;14.60;;;;;;;-2.63;79.88;100134.77;1690278;82;21082;-77
2021/03/13 09:14:58;;;;;;;25.37;13.32;;;;;;;-2.60;79.76;100139.31;1681503;84;21026;-77
2021/03/13 09:17:43;;;;;;;29.70;14.73;;;;;;;-2.61;79.73;100142.17;1696282;82;21117;-73
2021/03/13 09:20:16;;;;;;;33.63;14.87;;;;;;;-2.61;79.58;100142.17;1690786;84;21061;-74
2021/03/13 09:22:46;;;;;;;31.90;15.50;;;;;;;-2.59;79.67;100140.16;1695518;82;21512;-80
2021/03/13 09:25:20;;;;;;;34.13;15.60;;;;;;;-2.57;79.56;100146.17;1710869;83;21068;-80
2021/03/13 09:27:50;;;;;;;30.27;15.83;;;;;;;-2.55;79.57;100146.84;1703260;82;21142;-81
2021/03/13 09:30:23;;;;;;;28.93;15.43;;;;;;;-2.50;79.78;100141.81;1723279;83;21082;-79
2021/03/13 09:32:52;;;;;;;27.80;15.80;;;;;;;-2.48;79.63;100137.64;1706605;82;21113;-82
2021/03/13 09:35:25;;;;;;;29.30;15.07;;;;;;;-2.46;79.62;100140.49;1699779;84;21089;-77
2021/03/13 09:37:55;;;;;;;31.07;15.13;;;;;;;-2.42;79.51;100140.48;1694272;83;21215;-77
2021/03/13 09:40:26;;;;;;;30.73;14.87;;;;;;;-2.38;79.45;100142.33;1709126;82;21038;-75
2021/03/13 09:42:54;;;;;;;34.47;15.37;;;;;;;-2.36;79.47;100145.17;1708813;84;21366;-81
2021/03/13 09:45:24;;;;;;;28.73;14.60;;;;;;;-2.36;79.36;100140.31;1696611;82;21498;-77
2021/03/13 09:47:58;;;;;;;28.13;14.27;;;;;;;-2.35;79.31;100142.00;1706771;84;21072;-77
2021/03/13 09:50:35;;;;;;;30.37;14.57;;;;;;;-2.36;79.38;100143.84;1695903;82;21029;-83
2021/03/13 09:53:06;;;;;;;33.33;15.17;;;;;;;-2.32;79.56;100138.95;1706452;84;21053;-87
2021/03/13 09:55:37;;;;;;;33.67;15.20;;;;;;;-2.30;79.51;100133.77;1690132;83;21125;-83
2021/03/13 09:58:06;;;;;;;32.47;15.33;;;;;;;-2.31;79.51;100136.63;1701213;83;21067;-81
2021/03/13 10:00:42;;;;;;;36.05;16.48;;;;;;;-2.29;79.54;100137.28;1695334;82;21058;-79
2021/03/13 10:03:14;;;;;;;30.08;15.53;;;;;;;-2.28;79.62;100134.45;1694745;84;21125;-81
2021/03/13 10:17:20;;;;;;;31.83;16.70;;;;;;;-1.77;79.24;100135.02;1815678;78;28148;-79
2021/03/13 10:19:50;;;;;;;31.67;15.47;;;;;;;-1.78;78.96;100130.64;1799309;78;21544;-77
2021/03/13 10:22:22;;;;;;;32.10;17.77;;;;;;;-1.80;78.99;100128.15;1811741;78;21129;-75
2021/03/13 10:24:54;;;;;;;34.50;16.40;;;;;;;-1.77;79.04;100124.28;1819432;77;21645;-77
2021/03/13 10:27:27;;;;;;;30.23;15.97;;;;;;;-1.77;79.24;100117.58;1819338;77;21602;-80
2021/03/13 10:30:01;;;;;;;30.27;15.90;;;;;;;-1.77;78.97;100112.21;1793774;78;21298;-78
2021/03/13 10:32:31;;;;;;;30.07;16.13;;;;;;;-1.78;79.19;100110.52;1793798;79;21160;-77
2021/03/13 10:35:21;;;;;;;33.67;16.37;;;;;;;-1.80;79.18;100114.73;1790462;78;21187;-79
2021/03/13 10:38:00;;;;;;;30.80;15.73;;;;;;;-1.80;79.23;100113.89;1767378;79;21226;-79
2021/03/13 10:40:47;;;;;;;40.53;17.03;;;;;;;-1.84;79.14;100117.41;1829832;78;21152;-76
2021/03/13 10:43:43;;;;;;;37.20;17.87;;;;;;;-1.83;79.53;100123.62;1813131;78;21332;-76
2021/03/13 10:46:21;;;;;;;35.73;17.30;;;;;;;-1.81;79.34;100121.09;1827397;78;21220;-86
2021/03/13 10:48:58;;;;;;;35.97;17.27;;;;;;;-1.77;79.59;100108.19;1819018;78;21116;-85
2021/03/13 10:51:46;;;;;;;37.93;17.73;;;;;;;-1.74;79.56;100108.66;1824864;78;21101;-81
2021/03/13 10:54:25;;;;;;;40.67;18.30;;;;;;;-1.72;79.22;100111.19;1776534;79;21934;-82
2021/03/13 10:56:53;;;;;;;40.20;19.20;;;;;;;-1.73;79.22;100103.64;1804408;79;21148;-82
2021/03/13 10:59:32;;;;;;;39.80;19.40;;;;;;;-1.74;79.56;100103.80;1805837;79;21151;-81
2021/03/13 11:01:59;;;;;;;;;;;;;;;-1.76;79.73;100095.93;1803623;79;21496;-84
2021/03/13 11:04:30;;;;;;;46.87;19.23;;;;;;;-1.75;80.15;100098.95;1775120;80;20178;-84
2021/03/13 11:06:59;;;;;;;32.33;17.67;;;;;;;-1.73;79.93;100100.11;1770840;79;21088;-77
2021/03/13 11:09:29;;;;;;;40.83;18.63;;;;;;;-1.72;79.73;100095.91;1785504;79;21283;-80
2021/03/13 11:11:58;;;;;;;42.03;19.10;;;;;;;-1.72;79.70;100103.14;1793647;79;21458;-81
2021/03/13 11:14:27;;;;;;;42.75;18.27;;;;;;;-1.69;79.89;100102.77;1817858;78;21129;-81
2021/03/13 11:16:54;;;;;;;43.52;21.07;;;;;;;-1.67;80.01;100104.80;1801368;78;21254;-81
2021/03/13 11:19:25;;;;;;;36.95;20.25;;;;;;;-1.61;79.98;100089.32;1781862;78;21147;-84
2021/03/13 11:21:54;;;;;;;41.67;18.77;;;;;;;-1.59;79.87;100085.95;1763962;79;21159;-81
2021/03/13 11:24:23;;;;;;;39.40;19.00;;;;;;;-1.61;79.81;100075.91;1783586;79;21284;-80
2021/03/13 11:26:53;;;;;;;41.90;20.05;;;;;;;-1.62;79.85;100082.30;1796843;79;21582;-90
2021/03/13 11:29:23;;;;;;;44.57;21.17;;;;;;;-1.61;79.83;100077.25;1787273;79;21135;-87
2021/03/13 11:31:52;;;;;;;52.83;20.63;;;;;;;-1.53;79.97;100071.84;1789790;78;21214;-77
2021/03/13 11:34:22;;;;;;;49.43;20.87;;;;;;;-1.46;80.22;100079.02;1801130;79;21127;-82
2021/03/13 11:36:53;;;;;;;45.73;21.40;;;;;;;-1.41;80.22;100075.80;1804122;78;21514;-84
2021/03/13 11:39:22;;;;;;;43.97;21.63;;;;;;;-1.35;80.16;100075.11;1794106;79;21528;-85
2021/03/13 11:41:52;;;;;;;45.77;22.13;;;;;;;-1.29;80.03;100078.44;1774104;79;21147;-85
2021/03/13 11:44:21;;;;;;;49.40;22.57;;;;;;;-1.24;79.89;100077.91;1770714;80;21077;-82
2021/03/13 11:46:54;;;;;;;48.48;22.05;;;;;;;-1.23;79.76;100076.87;1771339;80;21168;-85
2021/03/13 11:49:23;;;;;;;48.27;21.77;;;;;;;-1.22;79.71;100075.37;1727041;80;21132;-78